createdAt,value
2016-07-28T00:00:52.125Z,1014.06
2016-07-28T00:01:52.152Z,1014.05
2016-07-28T00:02:52.179Z,1014.06
2016-07-28T00:03:52.206Z,1014.04
2016-07-28T00:04:52.232Z,1014.07
2016-07-28T00:05:52.259Z,1014.06
2016-07-28T00:06:52.287Z,1014.06
2016-07-28T00:07:52.313Z,1014.02
2016-07-28T00:08:52.340Z,1014.01
2016-07-28T00:09:52.385Z,1014.04
2016-07-28T00:10:52.393Z,1014.03
2016-07-28T00:11:52.420Z,1013.98
2016-07-28T00:12:52.445Z,1014
2016-07-28T00:13:52.474Z,1014
2016-07-28T00:14:52.500Z,1013.99
2016-07-28T00:15:52.527Z,1013.99
2016-07-28T00:16:52.553Z,1014.01
2016-07-28T00:17:52.581Z,1013.95
2016-07-28T00:18:52.608Z,1013.93
2016-07-28T00:20:52.661Z,1013.87
2016-07-28T00:21:52.687Z,1013.92
2016-07-28T00:22:52.715Z,1013.87
2016-07-28T00:23:52.741Z,1013.86
2016-07-28T00:24:52.767Z,1013.87
2016-07-28T00:25:52.795Z,1013.85
2016-07-28T00:26:52.820Z,1013.83
2016-07-28T00:27:52.848Z,1013.84
2016-07-28T00:28:52.874Z,1013.82
2016-07-28T00:29:52.902Z,1013.81
2016-07-28T00:30:52.928Z,1013.82
2016-07-28T00:31:52.954Z,1013.76
2016-07-28T00:32:52.981Z,1013.79
2016-07-28T00:33:53.008Z,1013.78
2016-07-28T00:34:53.034Z,1013.78
2016-07-28T00:35:53.061Z,1013.81
2016-07-28T00:36:53.089Z,1013.79
2016-07-28T00:37:53.115Z,1013.8
2016-07-28T00:38:53.142Z,1013.81
2016-07-28T00:39:53.172Z,1013.79
2016-07-28T00:40:53.194Z,1013.76
2016-07-28T00:41:53.221Z,1013.75
2016-07-28T00:42:53.247Z,1013.76
2016-07-28T00:43:53.276Z,1013.78
2016-07-28T00:44:53.303Z,1013.77
2016-07-28T00:45:53.332Z,1013.74
2016-07-28T00:46:53.355Z,1013.71
2016-07-28T00:47:53.382Z,1013.7
2016-07-28T00:48:53.408Z,1013.69
2016-07-28T00:49:53.444Z,1013.69
2016-07-28T00:50:53.462Z,1013.72
2016-07-28T00:51:53.490Z,1013.71
2016-07-28T00:52:53.514Z,1013.7
2016-07-28T00:53:53.548Z,1013.72
2016-07-28T00:54:53.570Z,1013.67
2016-07-28T00:55:53.602Z,1013.69
2016-07-28T00:56:53.622Z,1013.68
2016-07-28T00:57:53.655Z,1013.66
2016-07-28T00:58:53.676Z,1013.67
2016-07-28T00:59:53.701Z,1013.66
2016-07-28T01:00:53.729Z,1013.67
2016-07-28T01:01:53.756Z,1013.61
2016-07-28T01:02:53.782Z,1013.66
2016-07-28T01:03:53.808Z,1013.6
2016-07-28T01:04:53.836Z,1013.65
2016-07-28T01:05:53.871Z,1013.57
2016-07-28T01:06:53.890Z,1013.58
2016-07-28T01:07:53.917Z,1013.59
2016-07-28T01:08:53.944Z,1013.56
2016-07-28T01:09:53.971Z,1013.54
2016-07-28T01:10:53.996Z,1013.54
2016-07-28T01:11:54.027Z,1013.55
2016-07-28T01:12:54.051Z,1013.55
2016-07-28T01:13:54.079Z,1013.53
2016-07-28T01:14:54.103Z,1013.54
2016-07-28T01:15:54.130Z,1013.55
2016-07-28T01:16:54.157Z,1013.54
2016-07-28T01:17:54.183Z,1013.52
2016-07-28T01:18:54.209Z,1013.51
2016-07-28T01:19:54.237Z,1013.57
2016-07-28T01:20:54.264Z,1013.5
2016-07-28T01:21:54.290Z,1013.51
2016-07-28T01:22:54.316Z,1013.52
2016-07-28T01:23:54.343Z,1013.51
2016-07-28T01:24:54.371Z,1013.5
2016-07-28T01:25:54.403Z,1013.47
2016-07-28T01:26:54.423Z,1013.5
2016-07-28T01:27:54.450Z,1013.47
2016-07-28T01:28:54.476Z,1013.48
2016-07-28T01:29:54.512Z,1013.47
2016-07-28T01:30:54.528Z,1013.45
2016-07-28T01:31:54.560Z,1013.43
2016-07-28T01:32:54.582Z,1013.44
2016-07-28T01:33:54.616Z,1013.38
2016-07-28T01:34:54.636Z,1013.41
2016-07-28T01:35:54.664Z,1013.43
2016-07-28T01:36:54.689Z,1013.4
2016-07-28T01:37:54.716Z,1013.43
2016-07-28T01:38:54.742Z,1013.41
2016-07-28T01:39:54.768Z,1013.38
2016-07-28T01:40:54.796Z,1013.43
2016-07-28T01:41:54.827Z,1013.4
2016-07-28T01:42:54.849Z,1013.38
2016-07-28T01:43:54.875Z,1013.41
2016-07-28T01:44:54.901Z,1013.34
2016-07-28T01:45:54.931Z,1013.38
2016-07-28T01:46:54.955Z,1013.33
2016-07-28T01:47:54.988Z,1013.35
2016-07-28T01:48:55.009Z,1013.38
2016-07-28T01:49:55.043Z,1013.32
2016-07-28T01:50:55.062Z,1013.3
2016-07-28T01:51:55.097Z,1013.34
2016-07-28T01:52:55.115Z,1013.33
2016-07-28T01:53:55.148Z,1013.29
2016-07-28T01:54:55.171Z,1013.28
2016-07-28T01:55:55.200Z,1013.28
2016-07-28T01:56:55.221Z,1013.27
2016-07-28T01:57:55.250Z,1013.29
2016-07-28T01:58:55.274Z,1013.24
2016-07-28T01:59:55.308Z,1013.25
2016-07-28T02:00:55.328Z,1013.22
2016-07-28T02:01:55.354Z,1013.19
2016-07-28T02:02:55.380Z,1013.21
2016-07-28T02:03:55.407Z,1013.23
2016-07-28T02:04:55.434Z,1013.19
2016-07-28T02:05:55.460Z,1013.23
2016-07-28T02:06:55.487Z,1013.21
2016-07-28T02:07:55.514Z,1013.24
2016-07-28T02:08:55.541Z,1013.24
2016-07-28T02:09:55.567Z,1013.22
2016-07-28T02:10:55.593Z,1013.25
2016-07-28T02:11:55.621Z,1013.24
2016-07-28T02:12:55.651Z,1013.24
2016-07-28T02:13:55.674Z,1013.24
2016-07-28T02:14:55.700Z,1013.2
2016-07-28T02:15:55.727Z,1013.24
2016-07-28T02:16:55.753Z,1013.25
2016-07-28T02:17:55.787Z,1013.19
2016-07-28T02:18:55.807Z,1013.2
2016-07-28T02:19:55.839Z,1013.19
2016-07-28T02:20:55.860Z,1013.17
2016-07-28T02:21:55.886Z,1013.18
2016-07-28T02:22:55.913Z,1013.21
2016-07-28T02:23:55.939Z,1013.22
2016-07-28T02:24:55.966Z,1013.17
2016-07-28T02:25:55.993Z,1013.19
2016-07-28T02:26:56.020Z,1013.2
2016-07-28T02:27:56.047Z,1013.2
2016-07-28T02:28:56.073Z,1013.17
2016-07-28T02:29:56.100Z,1013.21
2016-07-28T02:30:56.127Z,1013.2
2016-07-28T02:31:56.153Z,1013.21
2016-07-28T02:32:56.180Z,1013.17
2016-07-28T02:33:56.206Z,1013.17
2016-07-28T02:34:56.232Z,1013.16
2016-07-28T02:35:56.267Z,1013.17
2016-07-28T02:36:56.285Z,1013.15
2016-07-28T02:37:56.313Z,1013.14
2016-07-28T02:38:56.589Z,1013.15
2016-07-28T02:39:56.366Z,1013.11
2016-07-28T02:40:56.396Z,1013.11
2016-07-28T02:41:56.419Z,1013.09
2016-07-28T02:42:56.446Z,1013.08
2016-07-28T02:43:56.473Z,1013.11
2016-07-28T02:44:56.499Z,1013.08
2016-07-28T02:45:56.526Z,1013.07
2016-07-28T02:46:56.553Z,1013.07
2016-07-28T02:47:56.579Z,1013.08
2016-07-28T02:48:56.607Z,1013.09
2016-07-28T02:49:56.639Z,1013.11
2016-07-28T02:50:56.659Z,1013.1
2016-07-28T02:51:56.687Z,1013.1
2016-07-28T02:52:56.711Z,1013.08
2016-07-28T02:53:56.748Z,1013.09
2016-07-28T02:54:56.765Z,1013.06
2016-07-28T02:55:56.800Z,1013.14
2016-07-28T02:56:56.818Z,1013.11
2016-07-28T02:57:56.852Z,1013.1
2016-07-28T02:58:56.871Z,1013.12
2016-07-28T02:59:56.898Z,1013.11
2016-07-28T03:00:56.924Z,1013.13
2016-07-28T03:01:56.957Z,1013.09
2016-07-28T03:02:56.978Z,1013.11
2016-07-28T03:03:57.003Z,1013.1
2016-07-28T03:04:57.030Z,1013.07
2016-07-28T03:05:57.063Z,1013.07
2016-07-28T03:06:57.084Z,1013.04
2016-07-28T03:07:57.110Z,1013.09
2016-07-28T03:08:57.137Z,1013.08
2016-07-28T03:09:57.164Z,1013.07
2016-07-28T03:10:57.191Z,1013.1
2016-07-28T03:11:57.217Z,1013.06
2016-07-28T03:12:57.243Z,1013.08
2016-07-28T03:13:57.271Z,1013.08
2016-07-28T03:14:57.296Z,1013.08
2016-07-28T03:15:57.323Z,1013.06
2016-07-28T03:16:57.350Z,1013.06
2016-07-28T03:17:57.386Z,1013.04
2016-07-28T03:18:57.403Z,1013.03
2016-07-28T03:19:57.429Z,1013.01
2016-07-28T03:20:57.457Z,1012.98
2016-07-28T03:21:57.483Z,1012.97
2016-07-28T03:22:57.509Z,1012.98
2016-07-28T03:23:57.548Z,1012.96
2016-07-28T03:24:57.563Z,1012.93
2016-07-28T03:25:57.589Z,1012.94
2016-07-28T03:27:57.651Z,1013.01
2016-07-28T03:28:57.669Z,1012.99
2016-07-28T03:29:57.700Z,1012.98
2016-07-28T03:30:57.722Z,1012.97
2016-07-28T03:31:57.748Z,1012.95
2016-07-28T03:32:57.776Z,1012.96
2016-07-28T03:33:57.807Z,1012.97
2016-07-28T03:34:57.828Z,1012.97
2016-07-28T03:35:57.864Z,1013.03
2016-07-28T03:36:57.881Z,1013.02
2016-07-28T03:37:57.908Z,1013.01
2016-07-28T03:38:57.934Z,1013.03
2016-07-28T03:39:57.962Z,1013.01
2016-07-28T03:40:57.987Z,1013.02
2016-07-28T03:41:58.024Z,1013.03
2016-07-28T03:42:58.041Z,1013.03
2016-07-28T03:43:58.067Z,1012.99
2016-07-28T03:44:58.094Z,1013.03
2016-07-28T03:45:58.127Z,1013
2016-07-28T03:46:58.148Z,1013.04
2016-07-28T03:47:58.173Z,1013
2016-07-28T03:48:58.200Z,1012.99
2016-07-28T03:49:58.227Z,1012.97
2016-07-28T03:50:58.253Z,1012.92
2016-07-28T03:51:58.279Z,1012.94
2016-07-28T03:52:58.308Z,1012.96
2016-07-28T03:53:58.339Z,1012.95
2016-07-28T03:54:58.360Z,1012.91
2016-07-28T03:55:58.386Z,1012.92
2016-07-28T03:56:58.412Z,1012.95
2016-07-28T03:57:58.439Z,1012.96
2016-07-28T03:58:58.464Z,1012.89
2016-07-28T03:59:58.491Z,1012.84
2016-07-28T04:00:58.518Z,1012.89
2016-07-28T04:01:58.551Z,1012.93
2016-07-28T04:02:58.571Z,1012.89
2016-07-28T04:03:58.597Z,1012.93
2016-07-28T04:04:58.625Z,1012.89
2016-07-28T04:05:58.660Z,1012.89
2016-07-28T04:06:58.677Z,1012.88
2016-07-28T04:07:58.705Z,1012.88
2016-07-28T04:08:58.730Z,1012.83
2016-07-28T04:09:58.763Z,1012.8
2016-07-28T04:10:58.783Z,1012.82
2016-07-28T04:11:58.819Z,1012.78
2016-07-28T04:12:58.837Z,1012.82
2016-07-28T04:13:58.884Z,1012.85
2016-07-28T04:14:58.893Z,1012.85
2016-07-28T04:15:58.916Z,1012.84
2016-07-28T04:16:58.943Z,1012.84
2016-07-28T04:17:58.970Z,1012.82
2016-07-28T04:18:58.997Z,1012.83
2016-07-28T04:19:59.033Z,1012.83
2016-07-28T04:20:59.049Z,1012.85
2016-07-28T04:21:59.078Z,1012.85
2016-07-28T04:22:59.103Z,1012.86
2016-07-28T04:23:59.129Z,1012.86
2016-07-28T04:24:59.155Z,1012.86
2016-07-28T04:25:59.183Z,1012.84
2016-07-28T04:26:59.209Z,1012.83
2016-07-28T04:27:59.243Z,1012.84
2016-07-28T04:28:59.261Z,1012.82
2016-07-28T04:29:59.288Z,1012.83
2016-07-28T04:30:59.315Z,1012.83
2016-07-28T04:31:59.342Z,1012.85
2016-07-28T04:32:59.367Z,1012.87
2016-07-28T04:33:59.394Z,1012.84
2016-07-28T04:34:59.421Z,1012.85
2016-07-28T04:35:59.455Z,1012.82
2016-07-28T04:36:59.473Z,1012.84
2016-07-28T04:37:59.500Z,1012.81
2016-07-28T04:38:59.526Z,1012.81
2016-07-28T04:39:59.563Z,1012.77
2016-07-28T04:40:59.580Z,1012.73
2016-07-28T04:41:59.611Z,1012.78
2016-07-28T04:42:59.633Z,1012.77
2016-07-28T04:43:59.659Z,1012.77
2016-07-28T04:44:59.685Z,1012.77
2016-07-28T04:45:59.712Z,1012.76
2016-07-28T04:46:59.738Z,1012.77
2016-07-28T04:47:59.771Z,1012.75
2016-07-28T04:48:59.792Z,1012.77
2016-07-28T04:49:59.823Z,1012.73
2016-07-28T04:50:59.844Z,1012.71
2016-07-28T04:51:59.876Z,1012.68
2016-07-28T04:52:59.897Z,1012.71
2016-07-28T04:53:59.923Z,1012.73
2016-07-28T04:54:59.949Z,1012.73
2016-07-28T04:55:59.977Z,1012.72
2016-07-28T04:57:00.003Z,1012.74
2016-07-28T04:58:00.029Z,1012.73
2016-07-28T04:59:00.056Z,1012.76
2016-07-28T05:00:00.083Z,1012.78
2016-07-28T05:01:00.108Z,1012.77
2016-07-28T05:02:00.135Z,1012.78
2016-07-28T05:03:00.162Z,1012.77
2016-07-28T05:04:00.188Z,1012.76
2016-07-28T05:05:00.213Z,1012.76
2016-07-28T05:06:00.241Z,1012.75
2016-07-28T05:07:00.267Z,1012.71
2016-07-28T05:08:00.294Z,1012.73
2016-07-28T05:09:00.319Z,1012.77
2016-07-28T05:10:00.346Z,1012.73
2016-07-28T05:11:00.373Z,1012.72
2016-07-28T05:12:00.398Z,1012.67
2016-07-28T05:13:00.426Z,1012.71
2016-07-28T05:14:00.459Z,1012.66
2016-07-28T05:15:00.479Z,1012.67
2016-07-28T05:16:00.511Z,1012.65
2016-07-28T05:17:00.531Z,1012.65
2016-07-28T05:18:00.567Z,1012.66
2016-07-28T05:19:00.585Z,1012.64
2016-07-28T05:20:00.619Z,1012.63
2016-07-28T05:21:00.638Z,1012.58
2016-07-28T05:22:00.665Z,1012.59
2016-07-28T05:23:00.690Z,1012.58
2016-07-28T05:24:00.717Z,1012.53
2016-07-28T05:25:00.743Z,1012.57
2016-07-28T05:26:00.771Z,1012.54
2016-07-28T05:27:00.796Z,1012.56
2016-07-28T05:28:00.832Z,1012.56
2016-07-28T05:29:00.850Z,1012.56
2016-07-28T05:30:00.876Z,1012.52
2016-07-28T05:31:00.902Z,1012.55
2016-07-28T05:32:00.929Z,1012.56
2016-07-28T05:33:00.955Z,1012.53
2016-07-28T05:34:00.982Z,1012.53
2016-07-28T05:35:01.007Z,1012.5
2016-07-28T05:36:01.035Z,1012.53
2016-07-28T05:37:01.061Z,1012.53
2016-07-28T05:38:01.088Z,1012.5
2016-07-28T05:39:01.114Z,1012.57
2016-07-28T05:40:01.141Z,1012.56
2016-07-28T05:41:01.168Z,1012.53
2016-07-28T05:42:01.201Z,1012.57
2016-07-28T05:43:01.220Z,1012.53
2016-07-28T05:44:01.246Z,1012.54
2016-07-28T05:45:01.272Z,1012.5
2016-07-28T05:46:01.307Z,1012.49
2016-07-28T05:47:01.326Z,1012.48
2016-07-28T05:48:01.352Z,1012.47
2016-07-28T05:49:01.378Z,1012.48
2016-07-28T05:50:01.412Z,1012.52
2016-07-28T05:52:01.460Z,1012.47
2016-07-28T05:53:01.486Z,1012.51
2016-07-28T05:54:01.519Z,1012.49
2016-07-28T05:55:01.538Z,1012.54
2016-07-28T05:56:01.564Z,1012.55
2016-07-28T05:57:01.591Z,1012.57
2016-07-28T05:58:01.618Z,1012.54
2016-07-28T05:59:01.645Z,1012.59
2016-07-28T06:00:01.671Z,1012.57
2016-07-28T06:01:01.696Z,1012.57
2016-07-28T06:02:01.726Z,1012.54
2016-07-28T06:03:01.748Z,1012.56
2016-07-28T06:04:01.776Z,1012.56
2016-07-28T06:05:01.803Z,1012.56
2016-07-28T06:06:01.830Z,1012.59
2016-07-28T06:07:01.855Z,1012.57
2016-07-28T06:08:01.887Z,1012.58
2016-07-28T06:09:01.908Z,1012.57
2016-07-28T06:10:01.935Z,1012.53
2016-07-28T06:11:01.960Z,1012.56
2016-07-28T06:12:01.995Z,1012.53
2016-07-28T06:13:02.017Z,1012.55
2016-07-28T06:14:02.041Z,1012.52
2016-07-28T06:15:02.067Z,1012.53
2016-07-28T06:16:02.093Z,1012.51
2016-07-28T06:17:02.120Z,1012.52
2016-07-28T06:18:02.152Z,1012.53
2016-07-28T06:19:02.173Z,1012.55
2016-07-28T06:20:02.202Z,1012.53
2016-07-28T06:21:02.226Z,1012.53
2016-07-28T06:22:02.252Z,1012.58
2016-07-28T06:23:02.279Z,1012.56
2016-07-28T06:24:02.305Z,1012.56
2016-07-28T06:25:02.331Z,1012.6
2016-07-28T06:26:02.360Z,1012.59
2016-07-28T06:27:02.384Z,1012.59
2016-07-28T06:28:02.419Z,1012.58
2016-07-28T06:29:02.437Z,1012.56
2016-07-28T06:30:02.475Z,1012.54
2016-07-28T06:31:02.491Z,1012.57
2016-07-28T06:32:02.518Z,1012.56
2016-07-28T06:33:02.543Z,1012.55
2016-07-28T06:34:02.571Z,1012.55
2016-07-28T06:35:02.597Z,1012.53
2016-07-28T06:36:02.627Z,1012.55
2016-07-28T06:37:02.650Z,1012.54
2016-07-28T06:38:02.677Z,1012.58
2016-07-28T06:39:02.703Z,1012.61
2016-07-28T06:40:02.736Z,1012.6
2016-07-28T06:41:02.756Z,1012.62
2016-07-28T06:42:02.783Z,1012.62
2016-07-28T06:43:02.810Z,1012.66
2016-07-28T06:44:02.839Z,1012.66
2016-07-28T06:45:02.863Z,1012.65
2016-07-28T06:46:02.889Z,1012.59
2016-07-28T06:47:02.915Z,1012.66
2016-07-28T06:48:02.942Z,1012.62
2016-07-28T06:49:02.968Z,1012.57
2016-07-28T06:50:02.996Z,1012.59
2016-07-28T06:51:03.021Z,1012.55
2016-07-28T06:52:03.055Z,1012.57
2016-07-28T06:53:03.074Z,1012.55
2016-07-28T06:54:03.101Z,1012.58
2016-07-28T06:55:03.127Z,1012.54
2016-07-28T06:56:03.154Z,1012.52
2016-07-28T06:57:03.181Z,1012.54
2016-07-28T06:58:03.207Z,1012.53
2016-07-28T06:59:03.233Z,1012.51
2016-07-28T07:00:03.260Z,1012.49
2016-07-28T07:01:03.287Z,1012.54
2016-07-28T07:02:03.319Z,1012.54
2016-07-28T07:03:03.338Z,1012.47
2016-07-28T07:04:03.367Z,1012.52
2016-07-28T07:05:03.393Z,1012.5
2016-07-28T07:06:03.420Z,1012.55
2016-07-28T07:07:03.446Z,1012.55
2016-07-28T07:08:03.472Z,1012.56
2016-07-28T07:09:03.499Z,1012.58
2016-07-28T07:10:03.526Z,1012.56
2016-07-28T07:11:03.552Z,1012.57
2016-07-28T07:12:03.580Z,1012.57
2016-07-28T07:13:03.605Z,1012.56
2016-07-28T07:14:03.639Z,1012.54
2016-07-28T07:15:03.660Z,1012.55
2016-07-28T07:16:03.688Z,1012.51
2016-07-28T07:17:03.714Z,1012.55
2016-07-28T07:18:03.740Z,1012.57
2016-07-28T07:19:03.769Z,1012.59
2016-07-28T07:20:03.804Z,1012.61
2016-07-28T07:21:03.823Z,1012.61
2016-07-28T07:22:03.856Z,1012.63
2016-07-28T07:23:03.878Z,1012.64
2016-07-28T07:24:03.906Z,1012.65
2016-07-28T07:25:03.933Z,1012.63
2016-07-28T07:26:03.967Z,1012.56
2016-07-28T07:27:03.990Z,1012.61
2016-07-28T07:28:04.017Z,1012.59
2016-07-28T07:29:04.046Z,1012.59
2016-07-28T07:30:04.074Z,1012.63
2016-07-28T07:31:04.100Z,1012.62
2016-07-28T07:32:04.129Z,1012.62
2016-07-28T07:33:04.157Z,1012.62
2016-07-28T07:34:04.386Z,1012.61
2016-07-28T07:35:04.211Z,1012.62
2016-07-28T07:36:04.239Z,1012.59
2016-07-28T07:37:04.268Z,1012.6
2016-07-28T07:38:04.295Z,1012.62
2016-07-28T07:39:04.323Z,1012.58
2016-07-28T07:40:04.353Z,1012.59
2016-07-28T07:41:04.380Z,1012.56
2016-07-28T07:42:04.408Z,1012.6
2016-07-28T07:43:04.435Z,1012.55
2016-07-28T07:44:04.465Z,1012.56
2016-07-28T07:45:04.493Z,1012.59
2016-07-28T07:46:04.521Z,1012.57
2016-07-28T07:47:04.549Z,1012.58
2016-07-28T07:48:04.578Z,1012.55
2016-07-28T07:49:04.605Z,1012.58
2016-07-28T07:50:04.635Z,1012.55
2016-07-28T07:51:04.663Z,1012.51
2016-07-28T07:52:04.692Z,1012.51
2016-07-28T07:53:04.722Z,1012.48
2016-07-28T07:54:04.749Z,1012.5
2016-07-28T07:55:04.778Z,1012.52
2016-07-28T07:56:04.811Z,1012.56
2016-07-28T07:57:04.834Z,1012.53
2016-07-28T07:58:04.867Z,1012.5
2016-07-28T07:59:04.891Z,1012.54
2016-07-28T08:00:04.920Z,1012.54
2016-07-28T08:01:04.948Z,1012.57
2016-07-28T08:02:04.988Z,1012.57
2016-07-28T08:03:05.006Z,1012.59
2016-07-28T08:04:05.034Z,1012.57
2016-07-28T08:05:05.064Z,1012.56
2016-07-28T08:06:05.099Z,1012.57
2016-07-28T08:07:05.121Z,1012.57
2016-07-28T08:08:05.148Z,1012.56
2016-07-28T08:09:05.177Z,1012.59
2016-07-28T08:10:05.208Z,1012.56
2016-07-28T08:11:05.233Z,1012.56
2016-07-28T08:12:05.262Z,1012.5
2016-07-28T08:13:05.291Z,1012.56
2016-07-28T08:14:05.327Z,1012.55
2016-07-28T08:15:05.349Z,1012.52
2016-07-28T08:16:05.383Z,1012.54
2016-07-28T08:17:05.407Z,1012.54
2016-07-28T08:18:05.443Z,1012.52
2016-07-28T08:19:05.463Z,1012.54
2016-07-28T08:20:05.499Z,1012.55
2016-07-28T08:21:05.522Z,1012.56
2016-07-28T08:22:05.549Z,1012.58
2016-07-28T08:23:05.578Z,1012.53
2016-07-28T08:24:05.607Z,1012.54
2016-07-28T08:25:05.636Z,1012.52
2016-07-28T08:26:05.673Z,1012.54
2016-07-28T08:27:05.693Z,1012.58
2016-07-28T08:29:05.751Z,1012.54
2016-07-28T08:30:05.779Z,1012.55
2016-07-28T08:31:05.809Z,1012.58
2016-07-28T08:32:05.837Z,1012.55
2016-07-28T08:33:05.865Z,1012.54
2016-07-28T08:34:05.894Z,1012.59
2016-07-28T08:35:05.923Z,1012.56
2016-07-28T08:36:05.953Z,1012.58
2016-07-28T08:37:05.979Z,1012.59
2016-07-28T08:38:06.019Z,1012.55
2016-07-28T08:40:06.069Z,1012.54
2016-07-28T08:41:06.095Z,1012.56
2016-07-28T08:42:06.123Z,1012.58
2016-07-28T08:43:06.152Z,1012.57
2016-07-28T08:44:06.180Z,1012.55
2016-07-28T08:45:06.208Z,1012.57
2016-07-28T08:46:06.238Z,1012.59
2016-07-28T08:47:06.267Z,1012.62
2016-07-28T08:48:06.303Z,1012.66
2016-07-28T08:49:06.324Z,1012.68
2016-07-28T08:50:06.353Z,1012.64
2016-07-28T08:51:06.381Z,1012.64
2016-07-28T08:52:06.409Z,1012.65
2016-07-28T08:53:06.437Z,1012.64
2016-07-28T08:54:06.467Z,1012.68
2016-07-28T08:55:06.495Z,1012.69
2016-07-28T08:56:06.523Z,1012.69
2016-07-28T08:57:06.552Z,1012.77
2016-07-28T08:58:06.581Z,1012.74
2016-07-28T08:59:06.609Z,1012.72
2016-07-28T09:00:06.638Z,1012.7
2016-07-28T09:01:06.666Z,1012.74
2016-07-28T09:02:06.705Z,1012.72
2016-07-28T09:03:06.724Z,1012.67
2016-07-28T09:04:06.754Z,1012.7
2016-07-28T09:05:06.782Z,1012.71
2016-07-28T09:06:06.810Z,1012.7
2016-07-28T09:07:06.838Z,1012.68
2016-07-28T09:08:06.867Z,1012.69
2016-07-28T09:09:06.896Z,1012.69
2016-07-28T09:10:06.931Z,1012.65
2016-07-28T09:11:06.952Z,1012.66
2016-07-28T09:12:06.993Z,1012.61
2016-07-28T09:13:07.009Z,1012.64
2016-07-28T09:14:07.037Z,1012.6
2016-07-28T09:15:07.066Z,1012.63
2016-07-28T09:16:07.096Z,1012.6
2016-07-28T09:17:07.123Z,1012.61
2016-07-28T09:18:07.153Z,1012.6
2016-07-28T09:19:07.182Z,1012.6
2016-07-28T09:20:07.215Z,1012.61
2016-07-28T09:21:07.239Z,1012.62
2016-07-28T09:22:07.267Z,1012.6
2016-07-28T09:23:07.296Z,1012.57
2016-07-28T09:24:07.325Z,1012.6
2016-07-28T09:25:07.353Z,1012.57
2016-07-28T09:26:07.382Z,1012.57
2016-07-28T09:27:07.410Z,1012.62
2016-07-28T09:28:07.440Z,1012.59
2016-07-28T09:29:07.467Z,1012.57
2016-07-28T09:30:07.497Z,1012.61
2016-07-28T09:31:07.526Z,1012.6
2016-07-28T09:32:07.554Z,1012.56
2016-07-28T09:33:07.583Z,1012.54
2016-07-28T09:34:07.611Z,1012.55
2016-07-28T09:35:07.639Z,1012.53
2016-07-28T09:36:07.669Z,1012.56
2016-07-28T09:37:07.697Z,1012.54
2016-07-28T09:38:07.727Z,1012.52
2016-07-28T09:39:07.804Z,1012.53
2016-07-28T09:40:07.789Z,1012.54
2016-07-28T09:41:07.812Z,1012.52
2016-07-28T09:42:07.844Z,1012.51
2016-07-28T09:43:07.869Z,1012.5
2016-07-28T09:44:07.897Z,1012.47
2016-07-28T09:45:07.926Z,1012.46
2016-07-28T09:46:07.955Z,1012.46
2016-07-28T09:47:07.983Z,1012.46
2016-07-28T09:48:08.012Z,1012.44
2016-07-28T09:49:08.041Z,1012.44
2016-07-28T09:50:08.069Z,1012.4
2016-07-28T09:51:08.098Z,1012.37
2016-07-28T09:52:08.127Z,1012.4
2016-07-28T09:53:08.156Z,1012.39
2016-07-28T09:54:08.184Z,1012.39
2016-07-28T09:55:08.212Z,1012.35
2016-07-28T09:56:08.242Z,1012.36
2016-07-28T09:57:08.269Z,1012.35
2016-07-28T09:58:08.299Z,1012.36
2016-07-28T09:59:08.329Z,1012.37
2016-07-28T10:00:08.357Z,1012.37
2016-07-28T10:01:08.385Z,1012.38
2016-07-28T10:02:08.414Z,1012.38
2016-07-28T10:03:08.443Z,1012.36
2016-07-28T10:04:08.472Z,1012.4
2016-07-28T10:05:08.499Z,1012.39
2016-07-28T10:06:08.530Z,1012.35
2016-07-28T10:07:08.559Z,1012.34
2016-07-28T10:08:08.586Z,1012.37
2016-07-28T10:09:08.615Z,1012.38
2016-07-28T10:10:08.645Z,1012.4
2016-07-28T10:11:08.674Z,1012.39
2016-07-28T10:12:08.702Z,1012.4
2016-07-28T10:13:08.731Z,1012.37
2016-07-28T10:14:08.760Z,1012.39
2016-07-28T10:15:08.794Z,1012.39
2016-07-28T10:16:08.818Z,1012.41
2016-07-28T10:17:08.847Z,1012.37
2016-07-28T10:18:08.883Z,1012.37
2016-07-28T10:19:08.904Z,1012.38
2016-07-28T10:20:08.933Z,1012.38
2016-07-28T10:21:08.963Z,1012.36
2016-07-28T10:22:09.001Z,1012.38
2016-07-28T10:23:09.019Z,1012.37
2016-07-28T10:24:09.048Z,1012.37
2016-07-28T10:25:09.077Z,1012.39
2016-07-28T10:26:09.107Z,1012.38
2016-07-28T10:27:09.134Z,1012.4
2016-07-28T10:28:09.164Z,1012.37
2016-07-28T10:29:09.193Z,1012.36
2016-07-28T10:30:09.222Z,1012.38
2016-07-28T10:31:09.251Z,1012.39
2016-07-28T10:33:09.313Z,1012.41
2016-07-28T10:34:09.338Z,1012.42
2016-07-28T10:35:09.367Z,1012.4
2016-07-28T10:36:09.396Z,1012.38
2016-07-28T10:37:09.425Z,1012.33
2016-07-28T10:38:09.453Z,1012.38
2016-07-28T10:39:09.483Z,1012.33
2016-07-28T10:40:09.514Z,1012.34
2016-07-28T10:41:09.541Z,1012.32
2016-07-28T10:42:09.570Z,1012.29
2016-07-28T10:43:09.600Z,1012.32
2016-07-28T10:44:09.628Z,1012.3
2016-07-28T10:45:09.656Z,1012.38
2016-07-28T10:46:09.687Z,1012.29
2016-07-28T10:47:09.715Z,1012.32
2016-07-28T10:48:09.744Z,1012.37
2016-07-28T10:49:09.773Z,1012.33
2016-07-28T10:50:09.802Z,1012.35
2016-07-28T10:51:09.831Z,1012.34
2016-07-28T10:52:09.859Z,1012.31
2016-07-28T10:53:09.888Z,1012.34
2016-07-28T10:54:09.918Z,1012.32
2016-07-28T10:55:09.947Z,1012.29
2016-07-28T10:56:09.975Z,1012.33
2016-07-28T10:57:10.005Z,1012.3
2016-07-28T10:58:10.034Z,1012.29
2016-07-28T10:59:10.062Z,1012.28
2016-07-28T11:00:10.092Z,1012.26
2016-07-28T11:01:10.125Z,1012.3
2016-07-28T11:02:10.151Z,1012.27
2016-07-28T11:03:10.178Z,1012.26
2016-07-28T11:04:10.207Z,1012.23
2016-07-28T11:05:10.237Z,1012.26
2016-07-28T11:06:10.267Z,1012.26
2016-07-28T11:07:10.294Z,1012.3
2016-07-28T11:08:10.324Z,1012.27
2016-07-28T11:09:10.353Z,1012.29
2016-07-28T11:10:10.381Z,1012.28
2016-07-28T11:11:10.410Z,1012.22
2016-07-28T11:12:10.439Z,1012.26
2016-07-28T11:13:10.468Z,1012.27
2016-07-28T11:14:10.500Z,1012.27
2016-07-28T11:15:10.526Z,1012.25
2016-07-28T11:16:10.555Z,1012.24
2016-07-28T11:17:10.585Z,1012.23
2016-07-28T11:18:10.612Z,1012.23
2016-07-28T11:19:10.641Z,1012.24
2016-07-28T11:20:10.671Z,1012.22
2016-07-28T11:21:10.705Z,1012.22
2016-07-28T11:22:10.729Z,1012.18
2016-07-28T11:23:10.757Z,1012.17
2016-07-28T11:24:10.787Z,1012.19
2016-07-28T11:25:10.815Z,1012.12
2016-07-28T11:26:10.844Z,1012.13
2016-07-28T11:27:10.873Z,1012.12
2016-07-28T11:28:10.907Z,1012.1
2016-07-28T11:29:10.931Z,1012.1
2016-07-28T11:30:10.960Z,1012.1
2016-07-28T11:31:10.990Z,1012.11
2016-07-28T11:32:11.017Z,1012.1
2016-07-28T11:33:11.046Z,1012.1
2016-07-28T11:34:11.076Z,1012.11
2016-07-28T11:35:11.105Z,1012.18
2016-07-28T11:36:11.134Z,1012.21
2016-07-28T11:37:11.162Z,1012.19
2016-07-28T11:38:11.193Z,1012.19
2016-07-28T11:39:11.221Z,1012.2
2016-07-28T11:40:11.250Z,1012.22
2016-07-28T11:41:11.279Z,1012.19
2016-07-28T11:42:11.308Z,1012.22
2016-07-28T11:43:11.336Z,1012.23
2016-07-28T11:44:11.371Z,1012.24
2016-07-28T11:45:11.395Z,1012.21
2016-07-28T11:46:11.424Z,1012.19
2016-07-28T11:47:11.452Z,1012.21
2016-07-28T11:48:11.482Z,1012.17
2016-07-28T11:49:11.510Z,1012.16
2016-07-28T11:50:11.540Z,1012.13
2016-07-28T11:51:11.568Z,1012.19
2016-07-28T11:52:11.603Z,1012.14
2016-07-28T11:53:11.626Z,1012.14
2016-07-28T11:54:11.655Z,1012.11
2016-07-28T11:55:11.684Z,1012.13
2016-07-28T11:56:11.715Z,1012.12
2016-07-28T11:57:11.743Z,1012.15
2016-07-28T11:58:11.772Z,1012.15
2016-07-28T12:00:11.829Z,1012.18
2016-07-28T12:01:11.858Z,1012.11
2016-07-28T12:02:11.887Z,1012.07
2016-07-28T12:03:11.915Z,1012.12
2016-07-28T12:04:11.945Z,1012.09
2016-07-28T12:05:11.973Z,1012.09
2016-07-28T12:06:12.002Z,1012.14
2016-07-28T12:07:12.032Z,1012.09
2016-07-28T12:08:12.060Z,1012.1
2016-07-28T12:09:12.089Z,1012.1
2016-07-28T12:10:12.118Z,1012.1
2016-07-28T12:11:12.147Z,1012.06
2016-07-28T12:12:12.176Z,1012.11
2016-07-28T12:13:12.205Z,1012.01
2016-07-28T12:14:12.244Z,1012.07
2016-07-28T12:15:12.264Z,1012.08
2016-07-28T12:16:12.302Z,1012.05